Kasper, South Dakota
Current Conditions -  °F | °C
As of 1:53 AM on Thursday 27 Nov 2014 (Local Time) from KPIR Reporting Station
Overcast Overcast  
Wind Chill: -6°   Ceiling: 3500
Heat Index:   Visibility: 10mi
Dew Point:   Wind: 10mph
Humidity: 83%   Direction: 80°E
Pressure: 30.43"   Gusts: NA
Location:  44.7159°N, 100.106°W
Report Text: KPIR 270753Z AUTO 08009KT 10SM OVC035 M13/M16 A3043 RMK AO2 SLP337 T11331156
Loading
Personal Weather Stations






























Interactive Weather Map New forecast layout! Learn more

10-Day Weather Forecast

Advertisements
Track Severe Weather on mobile